Decoded Metar for LFBL (LIMOGES in FRANCE) (IATA:LIG) | Meteo·Mobile Aviation Weather
aviador You're here:

LFBL Decoded Metar

LIMOGES in FRANCE
Report Time2019-07-21 18:00:00
UTC Time2019-07-21 18:17:50
Flight Rules vfr VFR
Wind350° at 05 kt
W.Decomp.*RWY 03: 3.9 kt HW 3.1 kt LCW
Visibility9999 m
Phenomena:N/A
Clouds:N/A
Expected CloudBase > 5,200 ft AGL from Temp-Dew spread
CeilingNone
Temp26°C (ISA +14)
Dew Point13°C (45% RH)
AAT25.2°C
QNH1023 hPa
Density Alt2,759 ft
Elevation1,319 ft
Report Wrong Elevation
Raw Report
METAR LFBL 211800Z AUTO 35005KT 310V020 CAVOK 26/13 Q1023 NOSIG=

Extra information for LFBL:More info

Metar Taf Metar & Taf Last 4 Metars F.Rules Stats Wind Profile Meteogram Temp Stats Airport Information Weather charts Add Link Nearby VenuesMetar ALERT Operation Metar Decoded Social comments